Time;durP1;ratioP1;P1;durP2;ratioP2;P2;SDS_P1;SDS_P2;PMS_P1;PMS_P2;Temp;Humidity;BMP_temperature;BMP_pressure;BME280_temperature;BME280_humidity;BME280_pressure;Samples;Min_cycle;Max_cycle;Signal;HPM_P1;HPM_P2
2021/08/26 00:07:58;;;;;;;28.17;26.10;;;16.20;78.50;;;;;;5047653;28;20516;-71
2021/08/26 00:10:25;;;;;;;28.43;26.43;;;16.20;78.50;;;;;;5044145;28;20459;-71
2021/08/26 00:12:52;;;;;;;28.17;26.30;;;16.20;78.70;;;;;;5035992;28;20452;-71
2021/08/26 00:15:20;;;;;;;29.47;27.50;;;16.20;78.80;;;;;;5039521;28;20475;-71
2021/08/26 00:17:47;;;;;;;29.27;27.23;;;16.20;78.80;;;;;;5039519;28;20841;-71
2021/08/26 00:20:14;;;;;;;28.57;26.60;;;16.20;78.70;;;;;;5047673;28;20965;-71
2021/08/26 00:22:42;;;;;;;29.67;27.50;;;16.20;79.10;;;;;;5038219;28;20462;-71
2021/08/26 00:25:09;;;;;;;28.60;26.60;;;16.10;79.00;;;;;;5038218;28;20459;-71
2021/08/26 00:27:36;;;;;;;28.33;26.60;;;16.10;78.90;;;;;;5046770;28;20479;-71
2021/08/26 00:30:04;;;;;;;29.13;27.10;;;16.10;78.40;;;;;;5048077;28;20447;-71
2021/08/26 00:32:32;;;;;;;27.77;25.93;;;16.20;77.80;;;;;;5044846;28;20459;-70
2021/08/26 00:34:59;;;;;;;28.03;26.13;;;16.20;77.80;;;;;;5048580;28;20829;-71
2021/08/26 00:37:26;;;;;;;28.63;26.63;;;16.10;77.90;;;;;;5050345;28;20465;-71
2021/08/26 00:39:53;;;;;;;28.70;26.60;;;16.20;77.70;;;;;;5041707;28;20499;-70
2021/08/26 00:42:19;;;;;;;29.47;26.83;;;16.20;78.30;;;;;;5044541;28;20460;-71
2021/08/26 00:44:46;;;;;;;27.90;26.00;;;16.10;78.40;;;;;;5037535;28;20464;-70
2021/08/26 00:47:13;;;;;;;28.43;26.63;;;16.00;78.90;;;;;;5049841;28;20443;-71
2021/08/26 00:49:42;;;;;;;27.47;25.77;;;16.00;79.00;;;;;;5041860;28;20449;-71
2021/08/26 00:52:11;;;;;;;28.00;26.10;;;15.90;79.10;;;;;;5043912;28;21049;-71
2021/08/26 00:54:38;;;;;;;28.63;26.20;;;15.80;79.30;;;;;;5046300;28;20455;-71
2021/08/26 00:57:05;;;;;;;28.77;26.77;;;15.80;79.20;;;;;;5048365;28;20540;-71
2021/08/26 00:59:33;;;;;;;29.33;27.30;;;15.80;79.60;;;;;;5043649;28;20468;-71
2021/08/26 01:02:05;;;;;;;27.70;25.70;;;15.80;79.60;;;;;;5041931;28;20474;-71
2021/08/26 01:04:37;;;;;;;29.50;27.50;;;15.80;79.50;;;;;;5048253;28;20458;-71
2021/08/26 01:07:07;;;;;;;29.93;27.90;;;15.80;79.20;;;;;;5049800;28;20463;-71
2021/08/26 01:09:43;;;;;;;29.37;27.30;;;15.70;79.30;;;;;;5047829;28;20455;-71
2021/08/26 01:12:15;;;;;;;28.70;26.80;;;15.70;79.30;;;;;;5046148;28;20451;-71
2021/08/26 01:14:42;;;;;;;28.30;26.50;;;15.70;79.30;;;;;;5043353;28;20465;-71
2021/08/26 01:17:09;;;;;;;28.40;26.40;;;15.70;79.60;;;;;;5050737;28;20485;-71
2021/08/26 01:19:36;;;;;;;29.50;27.40;;;15.70;79.80;;;;;;5047582;28;20451;-71
2021/08/26 01:22:05;;;;;;;29.30;27.40;;;15.50;80.60;;;;;;5049856;28;20455;-71
2021/08/26 01:24:34;;;;;;;28.37;26.47;;;15.50;80.90;;;;;;5048676;28;20469;-71
2021/08/26 01:27:04;;;;;;;29.40;27.20;;;15.40;81.10;;;;;;5031072;28;20799;-72
2021/08/26 01:29:31;;;;;;;29.90;27.70;;;15.40;81.40;;;;;;5046238;28;20497;-71
2021/08/26 01:31:59;;;;;;;29.23;27.23;;;15.30;81.60;;;;;;5039241;28;20470;-71
2021/08/26 01:34:28;;;;;;;28.43;26.53;;;15.30;81.70;;;;;;5045825;28;20459;-71
2021/08/26 01:36:55;;;;;;;27.47;25.60;;;15.30;81.80;;;;;;5048637;28;21023;-71
2021/08/26 01:39:22;;;;;;;28.50;26.60;;;15.30;81.90;;;;;;5047637;28;20561;-71
2021/08/26 01:41:50;;;;;;;28.27;26.40;;;15.30;81.60;;;;;;5046299;28;20466;-71
2021/08/26 01:44:20;;;;;;;28.30;26.50;;;15.30;82.00;;;;;;5036271;28;20459;-72
2021/08/26 01:46:46;;;;;;;29.50;27.30;;;15.30;82.00;;;;;;5050259;28;21012;-72
2021/08/26 01:49:13;;;;;;;29.90;27.70;;;15.20;82.00;;;;;;5046380;28;20483;-72
2021/08/26 01:51:41;;;;;;;28.63;26.67;;;15.20;81.90;;;;;;5047652;28;20467;-71
2021/08/26 01:54:09;;;;;;;29.37;27.40;;;15.20;81.90;;;;;;5042845;28;20469;-71
2021/08/26 01:56:36;;;;;;;29.03;27.13;;;15.20;81.90;;;;;;5043651;28;20573;-71
2021/08/26 01:59:02;;;;;;;29.20;27.20;;;15.20;82.00;;;;;;5042146;28;20470;-71
2021/08/26 02:01:31;;;;;;;28.40;26.50;;;15.20;81.80;;;;;;5042740;28;20482;-71
2021/08/26 02:03:57;;;;;;;28.67;26.73;;;15.10;81.80;;;;;;5043659;28;20474;-71
2021/08/26 02:06:24;;;;;;;28.90;26.80;;;15.10;81.80;;;;;;5048020;28;20952;-71
2021/08/26 02:08:51;;;;;;;29.73;27.53;;;15.10;81.80;;;;;;5039127;28;20489;-72
2021/08/26 02:11:18;;;;;;;28.97;27.07;;;15.10;81.90;;;;;;5049044;28;20957;-71
2021/08/26 02:13:45;;;;;;;28.37;26.37;;;15.10;81.90;;;;;;5042005;28;20869;-71
2021/08/26 02:16:14;;;;;;;28.47;26.37;;;15.00;82.10;;;;;;5037768;28;20502;-71
2021/08/26 02:18:42;;;;;;;28.47;26.67;;;15.00;82.30;;;;;;5037336;28;20838;-71
2021/08/26 02:21:09;;;;;;;29.20;27.20;;;15.10;82.00;;;;;;5045761;28;20462;-71
2021/08/26 02:23:36;;;;;;;29.87;27.67;;;15.00;82.00;;;;;;5036540;28;20836;-72
2021/08/26 02:26:03;;;;;;;29.07;27.17;;;15.00;82.20;;;;;;5049464;28;20454;-71
2021/08/26 02:28:30;;;;;;;28.97;27.00;;;14.90;82.40;;;;;;5045091;28;20488;-71
2021/08/26 02:30:57;;;;;;;28.40;26.57;;;14.90;82.60;;;;;;5049782;28;20469;-71
2021/08/26 02:33:23;;;;;;;30.37;27.90;;;14.80;82.80;;;;;;5040001;28;20461;-72
2021/08/26 02:35:52;;;;;;;28.10;26.07;;;14.80;82.80;;;;;;5045288;28;20463;-72
2021/08/26 02:38:19;;;;;;;28.17;26.33;;;14.80;82.90;;;;;;5037511;28;20825;-71
2021/08/26 02:40:46;;;;;;;28.13;26.23;;;14.70;83.30;;;;;;5040699;28;20490;-71
2021/08/26 02:43:13;;;;;;;27.40;25.70;;;14.70;83.40;;;;;;5041849;28;20818;-71
2021/08/26 02:45:39;;;;;;;28.13;26.20;;;14.70;83.40;;;;;;5050983;28;20454;-71
2021/08/26 02:48:07;;;;;;;28.00;26.10;;;14.60;83.70;;;;;;5047859;28;20501;-72
2021/08/26 02:50:34;;;;;;;29.50;27.57;;;14.60;83.60;;;;;;5042039;28;20988;-71
2021/08/26 02:53:02;;;;;;;28.40;26.60;;;14.50;83.90;;;;;;5040608;28;21052;-71
2021/08/26 02:55:29;;;;;;;29.43;27.53;;;14.50;84.30;;;;;;5046082;28;20458;-71
2021/08/26 02:57:57;;;;;;;28.97;26.90;;;14.50;84.10;;;;;;5036174;28;20483;-71
2021/08/26 03:00:24;;;;;;;29.57;27.43;;;14.50;84.10;;;;;;5051151;28;21011;-71
2021/08/26 03:02:51;;;;;;;27.53;25.70;;;14.50;84.10;;;;;;5052373;28;20465;-71
2021/08/26 03:05:18;;;;;;;30.67;28.37;;;14.50;84.40;;;;;;5049910;28;20493;-71
2021/08/26 03:07:45;;;;;;;27.63;25.73;;;14.50;84.20;;;;;;5041630;28;21291;-71
2021/08/26 03:10:13;;;;;;;29.80;27.60;;;14.60;84.10;;;;;;5049560;28;20979;-71
2021/08/26 03:12:40;;;;;;;28.57;26.60;;;14.60;83.90;;;;;;5048736;28;20486;-71
2021/08/26 03:15:08;;;;;;;29.03;27.03;;;14.60;83.70;;;;;;5037778;28;20462;-71
2021/08/26 03:17:35;;;;;;;31.13;28.97;;;14.70;83.50;;;;;;5049780;28;20467;-71
2021/08/26 03:20:02;;;;;;;31.60;29.40;;;14.60;83.60;;;;;;5050198;28;20489;-72
2021/08/26 03:22:29;;;;;;;27.83;26.00;;;14.70;83.40;;;;;;5039618;28;20464;-71
2021/08/26 03:24:56;;;;;;;28.87;26.93;;;14.70;83.30;;;;;;5047746;28;20549;-71
2021/08/26 03:27:24;;;;;;;29.20;27.10;;;14.70;83.20;;;;;;5040082;28;20548;-71
2021/08/26 03:29:51;;;;;;;28.80;26.90;;;14.70;83.00;;;;;;5048565;28;20477;-71
2021/08/26 03:32:18;;;;;;;29.47;27.40;;;14.70;83.10;;;;;;5051366;28;20461;-71
2021/08/26 03:34:45;;;;;;;31.40;29.00;;;14.70;83.20;;;;;;5050269;28;20454;-71
2021/08/26 03:37:12;;;;;;;33.60;31.40;;;14.70;83.20;;;;;;5041807;28;20471;-71
2021/08/26 03:39:39;;;;;;;29.90;27.90;;;14.70;83.20;;;;;;5050368;28;21090;-71
2021/08/26 03:42:07;;;;;;;30.80;28.70;;;14.80;83.10;;;;;;5051843;28;20451;-70
2021/08/26 03:44:35;;;;;;;28.80;26.70;;;14.80;82.80;;;;;;5049886;28;20458;-71
2021/08/26 03:47:02;;;;;;;29.37;27.40;;;14.80;82.70;;;;;;5051118;28;20461;-71
2021/08/26 03:49:29;;;;;;;29.30;27.20;;;14.90;82.70;;;;;;5045712;28;20479;-71
2021/08/26 03:51:56;;;;;;;29.27;27.30;;;14.90;82.50;;;;;;5051913;28;20473;-71
2021/08/26 03:54:23;;;;;;;30.00;27.90;;;14.90;82.60;;;;;;5050308;28;20550;-71
2021/08/26 03:56:50;;;;;;;35.80;33.40;;;14.90;82.50;;;;;;5051873;28;20481;-71
2021/08/26 03:59:17;;;;;;;33.00;30.90;;;14.80;82.70;;;;;;5045911;28;20478;-71
2021/08/26 04:01:46;;;;;;;32.07;29.20;;;14.80;82.90;;;;;;5049022;28;20461;-72
2021/08/26 04:04:13;;;;;;;29.73;27.80;;;14.80;83.00;;;;;;5049853;28;20459;-71
2021/08/26 04:06:40;;;;;;;30.10;28.13;;;14.80;83.20;;;;;;5040700;28;20554;-72
2021/08/26 04:09:07;;;;;;;32.80;30.50;;;14.80;83.00;;;;;;5049624;28;20576;-71
2021/08/26 04:11:33;;;;;;;30.97;28.97;;;14.80;83.10;;;;;;5051710;28;20451;-71
2021/08/26 04:14:00;;;;;;;31.10;29.10;;;14.90;82.80;;;;;;5049093;28;21047;-71
2021/08/26 04:16:27;;;;;;;30.33;28.13;;;14.90;82.50;;;;;;5047549;28;21220;-71
2021/08/26 04:18:56;;;;;;;30.80;28.70;;;14.90;82.70;;;;;;5047256;28;20475;-72
2021/08/26 04:21:23;;;;;;;32.30;30.00;;;14.90;82.50;;;;;;5050791;28;20467;-71
2021/08/26 04:23:49;;;;;;;29.53;27.63;;;15.00;82.10;;;;;;5036533;28;20538;-72
2021/08/26 04:26:16;;;;;;;31.30;29.30;;;15.00;82.20;;;;;;5046610;28;20452;-71
2021/08/26 04:28:43;;;;;;;31.80;29.70;;;15.00;82.20;;;;;;5036200;28;21059;-72
2021/08/26 04:31:10;;;;;;;32.97;30.67;;;15.10;82.30;;;;;;5051010;28;20559;-71
2021/08/26 04:33:37;;;;;;;30.73;28.70;;;15.10;82.20;;;;;;5049682;28;20458;-72
2021/08/26 04:36:05;;;;;;;30.07;28.07;;;15.10;82.30;;;;;;5049891;28;20492;-71
2021/08/26 04:38:33;;;;;;;29.08;27.10;;;15.10;82.20;;;;;;5044522;28;20543;-72
2021/08/26 04:41:00;;;;;;;30.07;28.07;;;15.20;81.70;;;;;;5051050;28;20669;-72
2021/08/26 04:43:26;;;;;;;30.80;28.80;;;15.20;81.80;;;;;;5047682;28;20468;-71
2021/08/26 04:45:53;;;;;;;32.50;30.30;;;15.10;82.00;;;;;;5045570;28;20482;-71
2021/08/26 04:48:20;;;;;;;30.90;28.90;;;15.10;82.10;;;;;;5037345;28;20558;-71
2021/08/26 04:50:47;;;;;;;30.00;27.90;;;15.10;82.40;;;;;;5047692;28;20558;-72
2021/08/26 04:53:15;;;;;;;32.13;29.93;;;15.20;82.00;;;;;;5038737;28;20948;-72
2021/08/26 04:55:42;;;;;;;28.90;26.93;;;15.20;82.50;;;;;;5049845;28;20553;-72
2021/08/26 04:58:11;;;;;;;29.43;27.43;;;15.20;82.40;;;;;;5039817;28;20574;-72
2021/08/26 05:00:38;;;;;;;29.77;27.87;;;15.10;82.40;;;;;;5044579;28;20542;-73
2021/08/26 05:03:05;;;;;;;30.73;28.40;;;15.20;82.30;;;;;;5042850;28;20458;-71
2021/08/26 05:05:32;;;;;;;32.83;30.30;;;15.20;82.50;;;;;;5045176;28;20559;-73
2021/08/26 05:07:59;;;;;;;32.27;29.90;;;15.20;82.40;;;;;;5039435;28;20559;-73
2021/08/26 05:10:27;;;;;;;30.17;27.90;;;15.20;82.40;;;;;;5045517;28;20983;-72
2021/08/26 05:12:54;;;;;;;30.03;27.93;;;15.40;81.90;;;;;;5040445;28;20474;-73
2021/08/26 05:15:21;;;;;;;31.30;29.30;;;15.40;81.90;;;;;;5044426;28;20468;-73
2021/08/26 05:17:48;;;;;;;31.30;29.07;;;15.40;81.90;;;;;;5048513;28;20505;-72
2021/08/26 05:20:15;;;;;;;33.20;30.63;;;15.40;81.80;;;;;;5049151;28;20855;-71
2021/08/26 05:22:41;;;;;;;32.60;30.40;;;15.40;81.80;;;;;;5047077;28;20802;-71
2021/08/26 05:25:09;;;;;;;29.77;27.67;;;15.50;81.70;;;;;;5046435;28;20471;-72
2021/08/26 05:27:37;;;;;;;30.70;28.60;;;15.50;81.60;;;;;;5040285;28;20489;-71
2021/08/26 05:30:05;;;;;;;32.80;30.70;;;15.60;81.30;;;;;;5047334;28;20483;-72
2021/08/26 05:32:32;;;;;;;32.97;30.77;;;15.60;81.10;;;;;;5049589;28;20546;-71
2021/08/26 05:34:59;;;;;;;32.80;30.50;;;15.60;81.10;;;;;;5046053;28;20810;-71
2021/08/26 05:37:25;;;;;;;30.07;27.97;;;15.60;81.10;;;;;;5047090;28;20475;-71
2021/08/26 05:39:52;;;;;;;31.93;29.83;;;15.70;80.60;;;;;;5039631;28;20463;-72
2021/08/26 05:42:19;;;;;;;32.03;29.30;;;15.70;80.70;;;;;;5036770;28;20517;-72
2021/08/26 05:44:48;;;;;;;32.27;29.90;;;15.80;80.60;;;;;;5044940;28;20912;-71
2021/08/26 05:47:14;;;;;;;34.50;31.80;;;15.80;80.20;;;;;;5042087;28;20458;-72
2021/08/26 05:49:41;;;;;;;29.37;27.47;;;15.80;80.30;;;;;;5034354;28;20464;-72
2021/08/26 05:52:08;;;;;;;30.57;28.47;;;16.00;80.00;;;;;;5036439;28;20637;-73
2021/08/26 05:54:35;;;;;;;32.97;30.67;;;16.00;79.80;;;;;;5043860;28;20467;-74
2021/08/26 05:57:03;;;;;;;31.80;29.50;;;16.00;79.80;;;;;;5040795;28;20571;-73
2021/08/26 05:59:30;;;;;;;31.77;29.43;;;16.00;79.80;;;;;;5043542;28;20825;-74
2021/08/26 06:02:00;;;;;;;31.80;29.50;;;16.10;79.70;;;;;;5045918;28;20463;-72
2021/08/26 06:04:27;;;;;;;32.33;30.13;;;16.10;79.70;;;;;;5039759;28;21084;-71
2021/08/26 06:06:54;;;;;;;29.03;27.23;;;16.10;79.90;;;;;;5046046;28;20459;-71
2021/08/26 06:09:21;;;;;;;32.30;30.20;;;16.20;79.90;;;;;;5043569;28;20475;-71
2021/08/26 06:11:48;;;;;;;31.37;29.37;;;16.20;79.90;;;;;;5031865;28;20467;-71
2021/08/26 06:14:15;;;;;;;34.35;31.95;;;16.30;79.80;;;;;;5038426;28;20465;-71
2021/08/26 06:16:42;;;;;;;32.37;30.17;;;16.20;79.90;;;;;;5042297;28;20651;-72
2021/08/26 06:19:10;;;;;;;31.90;29.27;;;16.20;80.30;;;;;;5043343;28;20481;-72
2021/08/26 06:21:37;;;;;;;32.00;29.90;;;16.20;80.40;;;;;;5046287;28;20451;-71
2021/08/26 06:24:06;;;;;;;30.97;28.63;;;16.20;80.50;;;;;;5038834;28;20451;-71
2021/08/26 06:26:34;;;;;;;31.03;28.90;;;16.20;80.30;;;;;;5047293;28;20463;-71
2021/08/26 06:29:01;;;;;;;32.23;30.03;;;16.20;80.20;;;;;;5044306;28;21057;-71
2021/08/26 06:31:28;;;;;;;30.88;28.67;;;16.20;80.20;;;;;;5043408;28;20515;-71
2021/08/26 06:33:55;;;;;;;34.17;31.43;;;16.40;79.70;;;;;;5043611;28;20250;-70
2021/08/26 06:36:23;;;;;;;31.47;29.47;;;16.40;79.60;;;;;;5047060;28;20985;-72
2021/08/26 06:38:50;;;;;;;30.40;28.37;;;16.40;79.90;;;;;;5046052;28;20490;-71
2021/08/26 06:41:17;;;;;;;31.77;29.50;;;16.40;79.80;;;;;;5047369;28;21028;-71
2021/08/26 06:43:44;;;;;;;33.73;31.43;;;16.40;79.70;;;;;;5041561;28;20976;-71
2021/08/26 06:46:11;;;;;;;34.70;32.03;;;16.40;79.50;;;;;;5037085;28;20469;-72
2021/08/26 06:48:38;;;;;;;33.30;31.10;;;16.50;79.50;;;;;;5040279;28;20467;-71
2021/08/26 06:51:05;;;;;;;34.00;31.60;;;16.50;79.70;;;;;;5036621;28;20464;-72
2021/08/26 06:53:33;;;;;;;32.03;29.77;;;16.60;79.60;;;;;;5031094;28;20451;-72
2021/08/26 06:56:00;;;;;;;32.97;30.57;;;16.50;79.70;;;;;;5045855;28;20459;-72
2021/08/26 06:58:27;;;;;;;33.23;30.73;;;16.60;79.70;;;;;;5044500;28;20480;-72
2021/08/26 07:00:54;;;;;;;32.07;29.97;;;16.60;79.90;;;;;;5035669;28;20467;-72
2021/08/26 07:03:21;;;;;;;34.20;31.80;;;16.60;80.00;;;;;;5040130;28;22072;-72
2021/08/26 07:05:48;;;;;;;33.97;31.30;;;16.70;80.00;;;;;;5038256;28;20481;-72
2021/08/26 07:08:15;;;;;;;31.30;29.20;;;16.70;80.00;;;;;;5044730;28;21066;-72
2021/08/26 07:10:43;;;;;;;31.63;29.47;;;16.70;80.10;;;;;;5047819;28;20459;-72
2021/08/26 07:13:10;;;;;;;32.70;30.50;;;16.80;79.80;;;;;;5042766;28;20459;-72
2021/08/26 07:15:37;;;;;;;33.33;31.30;;;16.90;78.50;;;;;;5035248;28;20536;-73
2021/08/26 07:18:05;;;;;;;34.03;31.87;;;16.90;78.70;;;;;;5041021;28;20921;-72
2021/08/26 07:20:33;;;;;;;33.03;30.50;;;16.90;78.60;;;;;;5048036;28;20455;-71
2021/08/26 07:23:00;;;;;;;32.87;30.27;;;16.90;78.60;;;;;;5035313;28;20490;-72
2021/08/26 07:25:27;;;;;;;35.07;32.67;;;16.90;78.70;;;;;;5045190;28;20495;-71
2021/08/26 07:27:55;;;;;;;32.47;30.37;;;17.00;78.50;;;;;;5039721;28;20555;-73
2021/08/26 07:30:22;;;;;;;35.77;33.07;;;17.10;78.20;;;;;;5049862;28;20465;-71
2021/08/26 07:32:49;;;;;;;35.90;33.00;;;17.30;78.00;;;;;;5040764;28;20464;-71
2021/08/26 07:35:16;;;;;;;35.23;32.60;;;17.30;77.60;;;;;;5047790;28;20494;-71
2021/08/26 07:37:42;;;;;;;35.37;33.10;;;17.30;77.30;;;;;;5049168;28;20482;-71
2021/08/26 07:40:11;;;;;;;33.20;30.60;;;17.40;76.70;;;;;;5046914;28;20809;-71
2021/08/26 07:42:38;;;;;;;34.77;32.27;;;17.50;76.60;;;;;;5041266;28;20451;-72
2021/08/26 07:45:09;;;;;;;38.57;35.80;;;17.50;76.90;;;;;;5033265;28;20556;-75
2021/08/26 07:47:36;;;;;;;39.43;36.73;;;17.50;77.10;;;;;;5047418;28;20474;-71
2021/08/26 07:50:03;;;;;;;36.47;33.53;;;17.60;76.90;;;;;;5048295;28;20455;-71
2021/08/26 07:52:30;;;;;;;37.13;34.53;;;17.70;76.80;;;;;;5046582;28;20988;-71
2021/08/26 07:54:57;;;;;;;38.37;34.70;;;17.70;76.70;;;;;;5048018;28;20539;-71
2021/08/26 07:57:24;;;;;;;36.37;33.87;;;17.80;75.50;;;;;;5048706;28;20462;-71
2021/08/26 07:59:52;;;;;;;36.37;33.97;;;17.90;75.30;;;;;;5047992;28;20452;-72
2021/08/26 08:02:20;;;;;;;33.63;31.43;;;17.90;75.20;;;;;;5047123;28;20513;-76
2021/08/26 08:04:47;;;;;;;35.07;32.60;;;17.80;75.40;;;;;;5048949;28;20466;-71
2021/08/26 08:07:14;;;;;;;35.07;32.80;;;17.80;75.70;;;;;;5045196;28;20486;-71
2021/08/26 08:09:40;;;;;;;34.17;31.90;;;17.70;76.10;;;;;;5048756;28;20458;-71
2021/08/26 08:12:07;;;;;;;34.00;31.43;;;17.70;75.90;;;;;;5049825;28;20469;-71
2021/08/26 08:14:34;;;;;;;35.03;32.30;;;17.70;76.30;;;;;;5049611;28;20477;-71
2021/08/26 08:17:01;;;;;;;36.10;33.70;;;17.70;76.20;;;;;;5045413;28;20905;-71
2021/08/26 08:19:30;;;;;;;36.77;34.27;;;17.70;78.20;;;;;;5049288;28;20820;-71
2021/08/26 08:21:59;;;;;;;35.57;32.90;;;17.60;76.40;;;;;;5049719;28;20455;-71
2021/08/26 08:24:26;;;;;;;34.00;31.80;;;17.60;76.30;;;;;;5045150;28;20541;-71
2021/08/26 08:26:52;;;;;;;35.37;32.57;;;17.60;76.20;;;;;;5042610;28;20458;-71
2021/08/26 08:29:20;;;;;;;36.47;34.00;;;17.70;76.10;;;;;;5048962;28;20478;-71
2021/08/26 08:31:46;;;;;;;37.83;34.87;;;17.60;76.40;;;;;;5046450;28;20479;-71
2021/08/26 08:34:14;;;;;;;38.50;35.00;;;17.50;77.60;;;;;;5048768;28;20459;-71
2021/08/26 08:36:42;;;;;;;35.23;32.70;;;17.30;78.70;;;;;;5050767;28;20972;-71
2021/08/26 08:39:09;;;;;;;37.13;34.40;;;16.90;80.10;;;;;;5048820;28;20925;-71
2021/08/26 08:41:37;;;;;;;36.07;33.43;;;16.80;81.30;;;;;;5050065;28;20481;-71
2021/08/26 08:44:04;;;;;;;38.60;35.73;;;16.60;82.20;;;;;;5045442;28;20976;-71
2021/08/26 08:46:34;;;;;;;37.80;35.10;;;16.50;83.10;;;;;;5038438;28;20455;-71
2021/08/26 08:49:03;;;;;;;34.80;32.40;;;16.50;84.20;;;;;;5045787;28;20482;-70
2021/08/26 08:51:31;;;;;;;34.50;32.10;;;16.60;84.60;;;;;;5048845;28;20821;-71
2021/08/26 08:54:00;;;;;;;34.70;32.10;;;16.70;84.70;;;;;;5036845;28;20455;-71
2021/08/26 08:56:27;;;;;;;34.50;32.03;;;16.90;84.20;;;;;;5048214;28;20557;-70
2021/08/26 08:58:58;;;;;;;36.90;34.10;;;17.00;83.90;;;;;;5047833;28;20888;-71
2021/08/26 09:01:25;;;;;;;34.57;31.87;;;17.00;84.40;;;;;;5049886;28;20953;-71
2021/08/26 09:03:52;;;;;;;35.40;32.57;;;17.00;84.70;;;;;;5047239;28;20973;-71
2021/08/26 09:06:19;;;;;;;33.63;31.13;;;17.10;84.80;;;;;;5048870;28;21027;-71
2021/08/26 09:09:03;;;;;;;36.67;33.53;;;17.20;84.80;;;;;;5044935;28;21017;-71
2021/08/26 09:11:30;;;;;;;37.07;34.07;;;17.30;84.40;;;;;;5048492;28;20470;-71
2021/08/26 09:14:07;;;;;;;33.27;31.07;;;17.50;83.90;;;;;;5036148;28;20517;-71
2021/08/26 09:16:38;;;;;;;36.37;33.87;;;17.40;83.10;;;;;;5051415;28;20543;-71
2021/08/26 09:19:23;;;;;;;37.63;34.83;;;17.40;83.70;;;;;;5047585;28;20596;-71
2021/08/26 09:21:51;;;;;;;38.10;35.30;;;17.50;84.00;;;;;;5050219;28;20959;-71
2021/08/26 09:24:19;;;;;;;38.03;35.07;;;17.50;84.20;;;;;;5049076;28;20455;-71
2021/08/26 09:26:52;;;;;;;36.00;33.40;;;17.60;84.00;;;;;;5049543;28;20463;-71
2021/08/26 09:29:19;;;;;;;37.13;34.43;;;17.50;83.90;;;;;;5045764;28;20491;-71
2021/08/26 09:31:46;;;;;;;35.73;33.23;;;17.60;84.40;;;;;;5035142;28;20455;-72
2021/08/26 09:34:15;;;;;;;36.40;33.83;;;17.60;84.50;;;;;;5041767;28;20469;-73
2021/08/26 09:36:56;;;;;;;37.10;34.50;;;17.50;84.70;;;;;;5032334;28;20554;-73
2021/08/26 09:39:29;;;;;;;36.67;34.03;;;17.60;84.30;;;;;;5039759;28;20493;-73
2021/08/26 09:41:58;;;;;;;34.10;31.30;;;17.60;83.90;;;;;;5047262;28;20458;-73
2021/08/26 09:44:27;;;;;;;34.17;31.77;;;17.50;84.90;;;;;;5046198;28;20561;-73
2021/08/26 09:46:55;;;;;;;35.07;32.70;;;17.50;84.90;;;;;;5040907;28;20551;-73
2021/08/26 09:49:25;;;;;;;32.03;29.97;;;17.40;85.10;;;;;;5046171;28;21003;-73
2021/08/26 09:52:06;;;;;;;32.47;30.37;;;17.30;85.30;;;;;;5046796;28;20968;-73
2021/08/26 09:54:37;;;;;;;31.47;29.27;;;17.20;86.00;;;;;;5039531;28;20825;-73
2021/08/26 09:57:06;;;;;;;32.43;30.33;;;17.10;86.70;;;;;;5047165;28;20546;-73
2021/08/26 09:59:47;;;;;;;31.57;29.57;;;17.20;86.50;;;;;;5042578;28;20849;-73
2021/08/26 10:02:15;;;;;;;30.00;28.13;;;17.30;86.70;;;;;;5042719;28;20463;-73
2021/08/26 10:04:43;;;;;;;29.37;27.40;;;17.40;86.60;;;;;;5034985;28;20963;-73
2021/08/26 10:07:10;;;;;;;29.80;27.90;;;17.50;86.40;;;;;;5042612;28;20460;-73
2021/08/26 10:09:41;;;;;;;27.33;25.70;;;17.60;85.80;;;;;;5045813;28;20822;-73
2021/08/26 10:12:12;;;;;;;25.90;24.30;;;17.30;84.60;;;;;;5042935;28;20470;-72
2021/08/26 10:14:39;;;;;;;29.03;27.23;;;17.10;85.90;;;;;;5041401;28;20462;-73
2021/08/26 10:17:06;;;;;;;29.23;27.43;;;16.90;86.50;;;;;;5048611;28;20484;-73
2021/08/26 10:19:34;;;;;;;26.53;24.93;;;16.70;87.30;;;;;;5045143;28;20540;-72
2021/08/26 10:22:01;;;;;;;24.57;23.17;;;16.70;87.30;;;;;;5031916;28;20547;-73
2021/08/26 10:24:28;;;;;;;24.47;23.07;;;16.60;86.60;;;;;;5038077;28;20469;-72
2021/08/26 10:27:01;;;;;;;27.07;25.57;;;16.40;87.80;;;;;;5041241;28;20886;-72
2021/08/26 10:29:28;;;;;;;25.27;23.83;;;16.40;87.80;;;;;;5042560;28;20485;-72
2021/08/26 10:31:58;;;;;;;24.37;23.07;;;16.20;87.20;;;;;;5035670;28;20842;-72
2021/08/26 10:34:27;;;;;;;23.97;22.77;;;16.20;87.60;;;;;;5039934;28;20493;-70
2021/08/26 10:37:24;;;;;;;23.70;22.40;;;16.30;87.50;;;;;;5039321;28;20493;-71
2021/08/26 10:39:51;;;;;;;23.70;22.50;;;16.40;86.70;;;;;;5040686;28;20475;-71
2021/08/26 10:42:45;;;;;;;23.60;22.10;;;16.40;86.50;;;;;;5042811;28;20464;-70
2021/08/26 10:45:24;;;;;;;22.00;20.90;;;16.60;86.90;;;;;;5046416;28;20501;-71
2021/08/26 10:48:16;;;;;;;23.67;22.37;;;16.60;85.40;;;;;;5041955;28;21019;-71
2021/08/26 10:50:48;;;;;;;24.33;23.03;;;17.00;85.00;;;;;;5040117;28;20452;-71
2021/08/26 10:53:27;;;;;;;24.97;23.67;;;17.00;82.70;;;;;;5045317;28;20478;-72
2021/08/26 10:55:56;;;;;;;24.93;23.43;;;16.90;83.30;;;;;;5041954;28;20466;-73
2021/08/26 10:58:40;;;;;;;23.63;22.33;;;16.90;82.60;;;;;;5047243;28;20475;-73
2021/08/26 11:01:09;;;;;;;23.43;22.13;;;17.10;83.30;;;;;;5041973;28;20967;-72
2021/08/26 11:03:59;;;;;;;23.93;22.83;;;17.40;82.00;;;;;;5045469;28;20492;-71
2021/08/26 11:06:40;;;;;;;25.03;23.53;;;17.70;79.80;;;;;;5041060;28;21027;-71
2021/08/26 11:09:36;;;;;;;25.70;24.10;;;17.90;79.50;;;;;;5039110;28;20466;-73
2021/08/26 11:12:24;;;;;;;26.27;24.77;;;18.20;77.90;;;;;;5048211;28;20551;-72
2021/08/26 11:14:53;;;;;;;28.00;26.40;;;18.10;77.00;;;;;;5045151;28;20997;-71
2021/08/26 11:17:32;;;;;;;28.53;26.83;;;18.30;77.20;;;;;;5045152;28;20459;-72
2021/08/26 11:20:20;;;;;;;28.67;26.77;;;18.70;76.10;;;;;;5037131;28;20962;-71
2021/08/26 11:23:02;;;;;;;30.07;28.27;;;18.80;73.70;;;;;;5042665;28;20454;-72
2021/08/26 11:25:29;;;;;;;27.80;26.10;;;19.00;75.40;;;;;;5047921;28;20843;-72
2021/08/26 11:28:30;;;;;;;29.50;27.77;;;19.40;75.50;;;;;;5039135;28;22316;-72
2021/08/26 11:31:17;;;;;;;30.07;28.40;;;19.90;72.10;;;;;;5045303;28;20454;-72
2021/08/26 11:33:44;;;;;;;31.67;29.57;;;20.00;67.30;;;;;;5050593;28;20465;-73
2021/08/26 11:36:13;;;;;;;30.63;28.73;;;19.50;68.10;;;;;;5049954;28;20545;-74
2021/08/26 11:38:49;;;;;;;32.73;30.73;;;19.40;69.40;;;;;;5041671;28;20537;-72
2021/08/26 11:41:16;;;;;;;28.20;26.50;;;19.10;67.90;;;;;;5051757;28;20473;-72
2021/08/26 11:43:43;;;;;;;33.10;30.90;;;18.80;69.50;;;;;;5050215;28;20455;-71
2021/08/26 11:46:12;;;;;;;29.57;27.47;;;18.50;69.10;;;;;;5046273;28;20467;-71
2021/08/26 11:48:58;;;;;;;31.97;29.97;;;18.60;70.40;;;;;;5046786;28;20488;-71
2021/08/26 11:51:31;;;;;;;31.47;29.47;;;18.50;71.10;;;;;;5046952;28;20557;-71
2021/08/26 11:54:16;;;;;;;30.80;28.80;;;18.70;70.60;;;;;;5042192;28;20524;-71
2021/08/26 11:56:51;;;;;;;32.40;30.30;;;18.80;70.70;;;;;;5050450;28;21039;-72
2021/08/26 11:59:26;;;;;;;32.20;30.30;;;18.80;69.90;;;;;;5047329;28;20492;-71
2021/08/26 12:02:18;;;;;;;32.27;29.83;;;18.90;70.30;;;;;;5042588;28;20470;-70
2021/08/26 12:04:47;;;;;;;33.60;31.40;;;19.10;69.10;;;;;;5044905;28;20473;-71
2021/08/26 12:07:22;;;;;;;31.20;29.20;;;18.90;68.70;;;;;;5044540;28;20948;-70
2021/08/26 12:09:49;;;;;;;31.07;29.00;;;18.80;70.10;;;;;;5043843;28;20467;-71
2021/08/26 12:12:16;;;;;;;30.13;28.23;;;18.80;69.90;;;;;;5046487;28;20471;-72
2021/08/26 12:14:43;;;;;;;33.13;30.83;;;18.70;69.70;;;;;;5043822;28;20490;-73
2021/08/26 12:17:12;;;;;;;32.90;30.70;;;18.70;70.60;;;;;;5042910;28;20965;-73
2021/08/26 12:19:39;;;;;;;31.57;29.57;;;18.90;70.20;;;;;;5042675;28;20478;-72
2021/08/26 12:22:08;;;;;;;31.87;29.63;;;19.10;69.40;;;;;;5044487;28;20468;-72
2021/08/26 12:24:35;;;;;;;32.17;30.07;;;19.10;69.20;;;;;;5042513;28;20451;-72
2021/08/26 12:27:09;;;;;;;33.30;31.10;;;18.60;70.30;;;;;;5044842;28;20967;-74
2021/08/26 12:29:43;;;;;;;32.40;30.27;;;18.50;71.40;;;;;;5039212;28;20462;-72
2021/08/26 12:32:32;;;;;;;30.37;28.50;;;18.70;69.30;;;;;;5040341;28;20470;-72
2021/08/26 12:35:20;;;;;;;32.80;30.70;;;18.60;69.80;;;;;;5044146;28;20503;-71
2021/08/26 12:37:55;;;;;;;29.27;27.50;;;18.60;69.70;;;;;;5049538;28;20649;-72
2021/08/26 12:40:22;;;;;;;29.70;27.80;;;18.70;69.70;;;;;;5044644;28;20490;-72
2021/08/26 12:43:00;;;;;;;31.60;29.60;;;18.90;69.50;;;;;;5046584;28;20465;-71
2021/08/26 12:45:27;;;;;;;30.97;29.10;;;18.80;68.80;;;;;;5046747;28;20528;-72